createdAt,value
2018-11-11T00:01:18.975Z,12.10
2018-11-11T00:03:47.697Z,12.10
2018-11-11T00:06:16.421Z,12.00
2018-11-11T00:08:45.122Z,11.80
2018-11-11T00:11:13.895Z,11.80
2018-11-11T00:13:42.529Z,11.70
2018-11-11T00:16:11.323Z,11.70
2018-11-11T00:18:40.023Z,11.70
2018-11-11T00:21:08.730Z,11.70
2018-11-11T00:23:37.460Z,11.70
2018-11-11T00:26:06.234Z,11.70
2018-11-11T00:28:34.909Z,11.70
2018-11-11T00:31:03.655Z,11.80
2018-11-11T00:33:32.340Z,11.70
2018-11-11T00:36:01.075Z,11.70
2018-11-11T00:38:29.746Z,11.70
2018-11-11T00:40:58.497Z,11.70
2018-11-11T00:43:27.196Z,11.60
2018-11-11T00:45:55.973Z,11.70
2018-11-11T00:48:24.730Z,11.60
2018-11-11T00:50:53.377Z,11.60
2018-11-11T00:53:22.049Z,11.70
2018-11-11T00:55:52.309Z,11.70
2018-11-11T00:58:21.010Z,11.70
2018-11-11T01:00:49.649Z,11.70
2018-11-11T01:03:18.324Z,11.70
2018-11-11T01:05:47.077Z,11.60
2018-11-11T01:08:15.960Z,11.60
2018-11-11T01:10:44.610Z,11.60
2018-11-11T01:13:13.288Z,11.50
2018-11-11T01:15:41.993Z,11.50
2018-11-11T01:18:10.704Z,11.40
2018-11-11T01:20:39.356Z,11.30
2018-11-11T01:23:08.060Z,11.40
2018-11-11T01:25:36.954Z,11.40
2018-11-11T01:28:05.998Z,11.30
2018-11-11T01:30:34.803Z,11.40
2018-11-11T01:33:03.564Z,11.40
2018-11-11T01:35:32.231Z,11.40
2018-11-11T01:38:00.877Z,11.40
2018-11-11T01:40:29.701Z,11.40
2018-11-11T01:42:58.365Z,11.40
2018-11-11T01:45:27.080Z,11.40
2018-11-11T01:47:55.923Z,11.40
2018-11-11T01:50:24.573Z,11.40
2018-11-11T01:52:53.397Z,11.40
2018-11-11T01:55:22.034Z,11.30
2018-11-11T01:57:50.939Z,11.30
2018-11-11T02:00:19.916Z,11.30
2018-11-11T02:02:49.289Z,11.30
2018-11-11T02:05:18.028Z,11.20
2018-11-11T02:07:47.398Z,11.10
2018-11-11T02:10:16.353Z,11.00
2018-11-11T02:12:46.222Z,10.90
2018-11-11T02:15:15.832Z,10.80
2018-11-11T02:17:44.496Z,10.80
2018-11-11T02:20:16.545Z,10.90
2018-11-11T02:22:46.558Z,10.90
2018-11-11T02:25:15.348Z,10.90
2018-11-11T02:27:44.457Z,11.00
2018-11-11T02:30:18.035Z,10.90
2018-11-11T02:32:46.821Z,10.80
2018-11-11T02:35:15.520Z,10.70
2018-11-11T02:37:44.678Z,10.70
2018-11-11T02:40:15.299Z,10.70
2018-11-11T02:42:44.271Z,10.60
2018-11-11T02:45:14.203Z,10.50
2018-11-11T02:47:42.864Z,10.50
2018-11-11T02:50:13.672Z,10.60
2018-11-11T02:52:43.059Z,10.60
2018-11-11T02:55:12.370Z,10.50
2018-11-11T02:57:41.644Z,10.50
2018-11-11T03:00:13.005Z,10.50
2018-11-11T03:02:43.202Z,10.40
2018-11-11T03:05:13.180Z,10.40
2018-11-11T03:07:41.936Z,10.40
2018-11-11T03:10:11.936Z,10.40
2018-11-11T03:12:41.103Z,10.40
2018-11-11T03:15:11.026Z,10.30
2018-11-11T03:17:39.744Z,10.30
2018-11-11T03:20:09.345Z,10.30
2018-11-11T03:22:38.105Z,10.30
2018-11-11T03:25:08.110Z,10.20
2018-11-11T03:27:36.809Z,10.20
2018-11-11T03:30:08.909Z,10.20
2018-11-11T03:32:37.941Z,10.20
2018-11-11T03:35:08.531Z,10.20
2018-11-11T03:37:37.304Z,10.20
2018-11-11T03:40:08.715Z,10.10
2018-11-11T03:42:37.390Z,10.10
2018-11-11T03:45:07.132Z,10.00
2018-11-11T03:47:35.897Z,10.00
2018-11-11T03:50:05.412Z,10.00
2018-11-11T03:52:34.175Z,10.00
2018-11-11T03:55:02.849Z,10.00
2018-11-11T03:57:31.478Z,9.90
2018-11-11T04:00:00.138Z,9.90
2018-11-11T04:02:28.838Z,9.90
2018-11-11T04:04:57.583Z,9.80
2018-11-11T04:07:26.680Z,9.80
2018-11-11T04:09:55.338Z,9.80
2018-11-11T04:12:23.961Z,9.80
2018-11-11T04:14:52.627Z,9.90
2018-11-11T04:17:21.318Z,9.90
2018-11-11T04:19:50.220Z,9.90
2018-11-11T04:22:20.473Z,9.80
2018-11-11T04:24:50.636Z,9.70
2018-11-11T04:27:20.002Z,9.70
2018-11-11T04:29:48.878Z,9.60
2018-11-11T04:32:17.493Z,9.60
2018-11-11T04:34:46.221Z,9.60
2018-11-11T04:37:14.872Z,9.60
2018-11-11T04:39:43.480Z,9.60
2018-11-11T04:42:12.160Z,9.60
2018-11-11T04:44:40.817Z,9.60
2018-11-11T04:47:09.462Z,9.70
2018-11-11T04:49:38.103Z,9.70
2018-11-11T04:52:07.038Z,9.70
2018-11-11T04:54:36.599Z,9.70
2018-11-11T04:57:05.290Z,9.70
2018-11-11T04:59:33.965Z,9.70
2018-11-11T05:02:03.104Z,9.80
2018-11-11T05:04:31.875Z,9.80
2018-11-11T05:07:00.620Z,9.80
2018-11-11T05:09:29.239Z,9.80
2018-11-11T05:11:57.879Z,9.80
2018-11-11T05:14:26.477Z,9.80
2018-11-11T05:16:55.135Z,9.80
2018-11-11T05:19:24.171Z,9.80
2018-11-11T05:21:52.834Z,9.80
2018-11-11T05:24:21.468Z,9.80
2018-11-11T05:26:51.108Z,9.80
2018-11-11T05:29:19.791Z,9.90
2018-11-11T05:31:48.449Z,9.90
2018-11-11T05:34:17.134Z,9.90
2018-11-11T05:36:46.046Z,9.90
2018-11-11T05:39:14.799Z,9.90
2018-11-11T05:41:43.573Z,9.90
2018-11-11T05:44:12.350Z,10.00
2018-11-11T05:46:40.978Z,10.00
2018-11-11T05:49:09.602Z,10.00
2018-11-11T05:51:38.414Z,10.10
2018-11-11T05:54:07.349Z,10.00
2018-11-11T05:56:36.103Z,10.10
2018-11-11T05:59:05.240Z,10.10
2018-11-11T06:01:34.022Z,10.20
2018-11-11T06:04:03.202Z,10.30
2018-11-11T06:06:31.950Z,10.40
2018-11-11T06:09:00.711Z,10.40
2018-11-11T06:11:29.418Z,10.50
2018-11-11T06:13:58.332Z,10.50
2018-11-11T06:16:27.281Z,10.50
2018-11-11T06:18:55.998Z,10.50
2018-11-11T06:21:25.120Z,10.50
2018-11-11T06:23:54.263Z,10.60
2018-11-11T06:26:23.225Z,10.60
2018-11-11T06:28:52.006Z,10.60
2018-11-11T06:31:20.766Z,10.80
2018-11-11T06:33:49.478Z,10.80
2018-11-11T06:36:18.222Z,10.70
2018-11-11T06:38:46.952Z,10.70
2018-11-11T06:41:15.602Z,10.70
2018-11-11T06:43:44.298Z,10.60
2018-11-11T06:46:12.943Z,10.60
2018-11-11T06:48:41.631Z,10.60
2018-11-11T06:51:10.322Z,10.60
2018-11-11T06:53:39.272Z,10.60
2018-11-11T06:56:08.043Z,10.70
2018-11-11T06:58:36.751Z,10.70
2018-11-11T07:01:06.255Z,10.70
2018-11-11T07:03:52.057Z,10.70
2018-11-11T07:06:21.393Z,10.70
2018-11-11T07:08:50.215Z,10.60
2018-11-11T07:11:20.260Z,10.60
2018-11-11T07:13:50.125Z,10.60
2018-11-11T07:16:19.071Z,10.60
2018-11-11T07:18:50.035Z,10.60
2018-11-11T07:21:20.349Z,10.60
2018-11-11T07:23:49.500Z,10.50
2018-11-11T07:26:18.731Z,10.50
2018-11-11T07:28:49.216Z,10.60
2018-11-11T07:31:20.422Z,10.60
2018-11-11T07:33:49.573Z,10.70
2018-11-11T07:36:18.217Z,10.70
2018-11-11T07:38:48.602Z,10.80
2018-11-11T07:41:17.650Z,10.90
2018-11-11T07:43:47.375Z,11.00
2018-11-11T07:46:17.377Z,11.10
2018-11-11T07:48:46.100Z,11.30
2018-11-11T07:51:17.515Z,11.40
2018-11-11T07:53:46.523Z,11.40
2018-11-11T07:56:15.350Z,11.50
2018-11-11T07:58:44.037Z,11.60
2018-11-11T08:01:12.986Z,11.70
2018-11-11T08:03:41.640Z,11.80
2018-11-11T08:06:10.318Z,12.00
2018-11-11T08:08:39.118Z,12.10
2018-11-11T08:11:19.395Z,12.20
2018-11-11T08:13:47.860Z,12.40
2018-11-11T08:16:16.539Z,12.50
2018-11-11T08:18:45.138Z,12.50
2018-11-11T08:21:13.775Z,12.70
2018-11-11T08:23:42.566Z,12.90
2018-11-11T08:26:11.271Z,13.10
2018-11-11T08:28:39.886Z,13.00
2018-11-11T08:31:08.661Z,13.00
2018-11-11T08:33:37.330Z,13.00
2018-11-11T08:36:06.175Z,13.20
2018-11-11T08:38:34.939Z,13.30
2018-11-11T08:41:07.788Z,13.30
2018-11-11T08:43:40.656Z,13.40
2018-11-11T08:46:09.674Z,13.60
2018-11-11T08:48:39.134Z,13.80
2018-11-11T08:51:07.777Z,13.80
2018-11-11T08:53:36.609Z,13.80
2018-11-11T08:56:05.797Z,13.70
2018-11-11T08:58:34.647Z,13.90
2018-11-11T09:01:03.484Z,14.20
2018-11-11T09:03:32.267Z,14.50
2018-11-11T09:06:01.010Z,14.70
2018-11-11T09:08:29.803Z,15.00
2018-11-11T09:11:08.980Z,15.40
2018-11-11T09:13:37.611Z,15.70
2018-11-11T09:16:06.296Z,15.90
2018-11-11T09:18:35.074Z,16.30
2018-11-11T09:21:04.145Z,16.60
2018-11-11T09:23:33.291Z,16.90
2018-11-11T09:26:02.214Z,17.00
2018-11-11T09:28:31.122Z,17.30
2018-11-11T09:31:00.164Z,17.30
2018-11-11T09:33:28.911Z,17.20
2018-11-11T09:35:58.361Z,17.40
2018-11-11T09:38:27.995Z,17.50
2018-11-11T09:40:56.714Z,17.60
2018-11-11T09:43:27.538Z,17.90
2018-11-11T09:45:58.393Z,18.10
2018-11-11T09:48:28.225Z,18.30
2018-11-11T09:50:57.808Z,18.60
2018-11-11T09:53:26.928Z,18.70
2018-11-11T09:55:55.699Z,19.00
2018-11-11T09:58:24.490Z,19.20
2018-11-11T10:00:53.241Z,19.30
2018-11-11T10:03:30.585Z,18.40
2018-11-11T10:07:14.986Z,17.90
2018-11-11T10:09:51.800Z,18.00
2018-11-11T10:12:27.347Z,18.20
2018-11-11T10:15:05.476Z,18.30
2018-11-11T10:19:43.892Z,18.10
2018-11-11T10:22:18.555Z,18.20
2018-11-11T10:25:22.356Z,18.40
2018-11-11T10:28:00.193Z,18.60
2018-11-11T10:30:34.745Z,19.00
2018-11-11T10:33:21.109Z,19.00
2018-11-11T10:35:54.663Z,19.20
2018-11-11T10:38:27.757Z,19.10
2018-11-11T10:41:03.310Z,18.80
2018-11-11T10:43:38.255Z,18.90
2018-11-11T10:46:24.506Z,19.00
2018-11-11T10:49:00.336Z,19.20
2018-11-11T10:51:29.177Z,19.10
2018-11-11T10:53:58.099Z,19.10
2018-11-11T10:56:27.178Z,18.90
2018-11-11T10:58:56.177Z,18.80
2018-11-11T11:01:26.812Z,19.00
2018-11-11T11:03:55.871Z,19.30
2018-11-11T11:06:29.848Z,19.70
2018-11-11T11:09:03.725Z,19.60
2018-11-11T11:11:32.690Z,19.30
2018-11-11T11:14:01.530Z,19.30
2018-11-11T11:16:30.224Z,19.40
2018-11-11T11:18:58.866Z,19.60
2018-11-11T11:21:27.959Z,19.70
2018-11-11T11:23:57.127Z,19.60
2018-11-11T11:26:26.272Z,19.70
2018-11-11T11:28:55.011Z,19.80
2018-11-11T11:31:23.853Z,19.90
2018-11-11T11:33:52.518Z,19.60
2018-11-11T11:36:21.169Z,19.50
2018-11-11T11:38:50.333Z,19.30
2018-11-11T11:41:19.691Z,19.30
2018-11-11T11:43:48.381Z,19.30
2018-11-11T11:46:18.188Z,19.50
2018-11-11T11:48:47.954Z,19.80
2018-11-11T11:51:17.962Z,20.20
2018-11-11T11:53:46.676Z,20.50
2018-11-11T11:56:15.667Z,20.60
2018-11-11T11:58:46.639Z,20.30
2018-11-11T12:01:15.317Z,20.50
2018-11-11T12:03:44.041Z,20.90
2018-11-11T12:06:13.271Z,21.00
2018-11-11T12:08:42.511Z,20.70
2018-11-11T12:11:12.623Z,20.50
2018-11-11T12:13:41.290Z,20.70
2018-11-11T12:16:09.963Z,20.80
2018-11-11T12:18:38.652Z,20.80
2018-11-11T12:21:07.380Z,20.70
2018-11-11T12:23:36.336Z,20.60
2018-11-11T12:26:05.153Z,20.80
2018-11-11T12:28:33.888Z,20.80
2018-11-11T12:31:03.091Z,20.50
2018-11-11T12:33:32.006Z,20.40
2018-11-11T12:36:01.298Z,20.30
2018-11-11T12:38:31.591Z,19.80
2018-11-11T12:41:00.774Z,19.30
2018-11-11T12:43:36.032Z,19.30
2018-11-11T12:46:04.750Z,19.30
2018-11-11T12:48:33.438Z,19.70
2018-11-11T12:51:02.533Z,19.80
2018-11-11T12:53:31.439Z,19.80
2018-11-11T12:56:00.372Z,19.90
2018-11-11T12:58:29.150Z,19.90
2018-11-11T13:00:58.967Z,19.80
2018-11-11T13:03:27.815Z,19.60
2018-11-11T13:05:56.495Z,19.60
2018-11-11T13:08:25.154Z,19.80
2018-11-11T13:10:53.716Z,20.00
2018-11-11T13:13:22.378Z,20.40
2018-11-11T13:15:51.350Z,20.80
2018-11-11T13:18:20.077Z,20.90
2018-11-11T13:20:48.959Z,21.00
2018-11-11T13:23:18.244Z,20.90
2018-11-11T13:25:47.275Z,20.70
2018-11-11T13:28:16.842Z,20.30
2018-11-11T13:30:45.502Z,20.30
2018-11-11T13:33:15.157Z,20.20
2018-11-11T13:35:44.305Z,20.20
2018-11-11T13:38:13.461Z,20.10
2018-11-11T13:40:42.935Z,20.20
2018-11-11T13:43:11.842Z,20.20
2018-11-11T13:45:40.614Z,20.20
2018-11-11T13:48:09.344Z,20.40
2018-11-11T13:50:38.187Z,20.80
2018-11-11T13:53:06.983Z,21.20
2018-11-11T13:55:37.902Z,21.50
2018-11-11T13:58:08.949Z,21.60
2018-11-11T14:00:41.519Z,21.90
2018-11-11T14:03:14.198Z,22.10
2018-11-11T14:05:49.047Z,22.40
2018-11-11T14:08:32.124Z,22.50
2018-11-11T14:11:05.621Z,22.70
2018-11-11T14:13:39.316Z,22.80
2018-11-11T14:16:14.008Z,22.80
2018-11-11T14:18:54.896Z,23.00
2018-11-11T14:21:26.563Z,22.90
2018-11-11T14:23:55.406Z,22.80
2018-11-11T14:26:24.391Z,22.50
2018-11-11T14:28:53.233Z,21.80
2018-11-11T14:31:22.565Z,21.10
2018-11-11T14:33:51.339Z,20.40
2018-11-11T14:36:20.060Z,19.90
2018-11-11T14:38:48.752Z,19.40
2018-11-11T14:41:17.535Z,19.10
2018-11-11T14:43:46.595Z,18.90
2018-11-11T14:46:15.339Z,18.80
2018-11-11T14:48:44.030Z,18.60
2018-11-11T14:51:12.693Z,18.50
2018-11-11T14:53:41.611Z,18.70
2018-11-11T14:56:10.369Z,19.70
2018-11-11T14:58:39.025Z,21.30
2018-11-11T15:01:08.226Z,22.80
2018-11-11T15:03:37.587Z,24.10
2018-11-11T15:06:07.333Z,25.30
2018-11-11T15:08:36.027Z,25.60
2018-11-11T15:11:08.819Z,24.60
2018-11-11T15:13:38.007Z,23.30
2018-11-11T15:16:17.846Z,22.10
2018-11-11T15:18:46.564Z,21.10
2018-11-11T15:21:16.021Z,20.10
2018-11-11T15:23:45.352Z,19.40
2018-11-11T15:26:14.032Z,18.80
2018-11-11T15:28:48.668Z,18.40
2018-11-11T15:31:17.453Z,17.90
2018-11-11T15:33:47.180Z,17.70
2018-11-11T15:36:15.970Z,17.50
2018-11-11T15:38:44.643Z,17.40
2018-11-11T15:41:13.604Z,17.20
2018-11-11T15:43:42.344Z,17.00
2018-11-11T15:46:11.031Z,16.70
2018-11-11T15:48:39.888Z,16.30
2018-11-11T15:51:08.565Z,15.90
2018-11-11T15:53:37.490Z,15.70
2018-11-11T15:56:21.325Z,15.40
2018-11-11T15:58:50.974Z,15.20
2018-11-11T16:01:19.978Z,15.10
2018-11-11T16:03:49.593Z,15.10
2018-11-11T16:06:26.350Z,15.00
2018-11-11T16:09:08.833Z,15.00
2018-11-11T16:11:48.161Z,14.90
2018-11-11T16:14:19.583Z,14.90
2018-11-11T16:16:50.206Z,14.90
2018-11-11T16:19:31.136Z,14.80
2018-11-11T16:22:10.821Z,14.70
2018-11-11T16:24:47.652Z,14.60
2018-11-11T16:27:19.264Z,14.50
2018-11-11T16:29:49.688Z,14.40
2018-11-11T16:32:21.963Z,14.20
2018-11-11T16:34:50.644Z,14.10
2018-11-11T16:37:22.623Z,14.00
2018-11-11T16:39:53.887Z,13.90
2018-11-11T16:42:23.077Z,13.90
2018-11-11T16:44:53.108Z,13.90
2018-11-11T16:47:23.093Z,13.80
2018-11-11T16:49:51.847Z,13.70
2018-11-11T16:52:21.463Z,13.70
2018-11-11T16:54:51.438Z,13.70
2018-11-11T16:57:32.621Z,13.70
2018-11-11T17:00:01.563Z,13.70
2018-11-11T17:02:30.267Z,13.70
2018-11-11T17:04:58.944Z,13.70
2018-11-11T17:07:27.586Z,13.70
2018-11-11T17:09:56.521Z,13.70
2018-11-11T17:12:31.017Z,13.70
2018-11-11T17:14:59.881Z,13.60
2018-11-11T17:17:28.519Z,13.60
2018-11-11T17:19:57.570Z,13.60
2018-11-11T17:22:26.548Z,13.50
2018-11-11T17:24:55.297Z,13.50
2018-11-11T17:27:24.457Z,13.50
2018-11-11T17:29:53.185Z,13.40
2018-11-11T17:32:21.875Z,13.40
2018-11-11T17:34:50.516Z,13.40
2018-11-11T17:37:19.391Z,13.40
2018-11-11T17:39:48.369Z,13.30
2018-11-11T17:42:17.493Z,13.30
2018-11-11T17:44:46.411Z,13.30
2018-11-11T17:47:15.252Z,13.30
2018-11-11T17:49:45.568Z,13.30
2018-11-11T17:52:17.322Z,13.30
2018-11-11T17:54:46.282Z,13.30
2018-11-11T17:57:14.968Z,13.30
2018-11-11T17:59:43.689Z,13.30
2018-11-11T18:02:13.431Z,13.30
2018-11-11T18:04:42.103Z,13.30
2018-11-11T18:07:10.829Z,13.20
2018-11-11T18:09:39.570Z,13.20
2018-11-11T18:12:08.485Z,13.20
2018-11-11T18:14:37.314Z,13.20
2018-11-11T18:17:06.469Z,13.20
2018-11-11T18:19:35.063Z,13.20
2018-11-11T18:22:03.796Z,13.20
2018-11-11T18:24:32.460Z,13.20
2018-11-11T18:27:01.269Z,13.20
2018-11-11T18:29:29.929Z,13.20
2018-11-11T18:31:58.601Z,13.20
2018-11-11T18:34:27.353Z,13.20
2018-11-11T18:36:56.229Z,13.10
2018-11-11T18:39:25.205Z,13.10
2018-11-11T18:41:54.448Z,13.10
2018-11-11T18:44:23.229Z,13.10
2018-11-11T18:46:51.882Z,13.10
2018-11-11T18:49:20.495Z,13.10
2018-11-11T18:51:49.429Z,13.10
2018-11-11T18:54:18.107Z,13.00
2018-11-11T18:56:46.762Z,13.00
2018-11-11T18:59:15.365Z,13.00
2018-11-11T19:01:44.769Z,13.00
2018-11-11T19:04:13.401Z,12.90
2018-11-11T19:06:42.112Z,13.00
2018-11-11T19:09:13.147Z,13.00
2018-11-11T19:11:42.943Z,13.00
2018-11-11T19:14:11.588Z,13.00
2018-11-11T19:16:40.222Z,12.90
2018-11-11T19:19:09.049Z,12.90
2018-11-11T19:21:37.739Z,12.90
2018-11-11T19:24:06.419Z,12.90
2018-11-11T19:26:35.239Z,12.90
2018-11-11T19:29:04.089Z,12.90
2018-11-11T19:31:33.467Z,12.90
2018-11-11T19:34:02.269Z,12.90
2018-11-11T19:37:56.232Z,12.90
2018-11-11T19:40:26.127Z,12.90
2018-11-11T19:42:56.261Z,12.90
2018-11-11T19:45:26.119Z,12.90
2018-11-11T19:47:54.836Z,12.90
2018-11-11T19:50:24.467Z,12.90
2018-11-11T19:52:54.318Z,12.90
2018-11-11T19:55:23.415Z,12.90
2018-11-11T19:57:52.291Z,12.80
2018-11-11T20:00:24.410Z,12.80
2018-11-11T20:02:53.721Z,12.80
2018-11-11T20:05:22.723Z,12.80
2018-11-11T20:07:52.894Z,12.80
2018-11-11T20:10:22.399Z,12.80
2018-11-11T20:12:51.230Z,12.90
2018-11-11T20:15:21.300Z,12.90
2018-11-11T20:17:50.479Z,12.90
2018-11-11T20:20:20.635Z,12.90
2018-11-11T20:22:49.684Z,13.00
2018-11-11T20:25:19.174Z,12.90
2018-11-11T20:27:48.255Z,12.90
2018-11-11T20:30:20.942Z,12.90
2018-11-11T20:32:49.909Z,12.90
2018-11-11T20:35:21.067Z,12.90
2018-11-11T20:37:50.658Z,12.90
2018-11-11T20:40:21.042Z,12.90
2018-11-11T20:42:50.603Z,12.90
2018-11-11T20:45:20.648Z,12.80
2018-11-11T20:47:50.050Z,12.80
2018-11-11T20:50:20.866Z,12.80
2018-11-11T20:52:51.225Z,12.80
2018-11-11T20:55:20.852Z,12.80
2018-11-11T20:57:49.771Z,12.80
2018-11-11T21:00:20.703Z,12.80
2018-11-11T21:02:49.643Z,12.80
2018-11-11T21:05:20.128Z,12.70
2018-11-11T21:07:49.094Z,12.70
2018-11-11T21:10:20.191Z,12.70
2018-11-11T21:12:49.548Z,12.70
2018-11-11T21:15:19.796Z,12.70
2018-11-11T21:17:48.590Z,12.70
2018-11-11T21:20:19.741Z,12.70
2018-11-11T21:22:48.736Z,12.70
2018-11-11T21:25:17.422Z,12.70
2018-11-11T21:27:46.934Z,12.70
2018-11-11T21:30:20.384Z,12.70
2018-11-11T21:32:49.315Z,12.70
2018-11-11T21:35:18.043Z,12.70
2018-11-11T21:37:46.864Z,12.80
2018-11-11T21:40:17.466Z,12.80
2018-11-11T21:42:47.048Z,12.80
2018-11-11T21:45:16.982Z,12.90
2018-11-11T21:47:45.950Z,12.90
2018-11-11T21:50:15.878Z,13.00
2018-11-11T21:52:46.808Z,13.00
2018-11-11T21:55:20.581Z,13.10
2018-11-11T21:57:49.743Z,13.10
2018-11-11T22:00:18.521Z,13.10
2018-11-11T22:02:47.317Z,13.10
2018-11-11T22:05:15.966Z,13.00
2018-11-11T22:07:45.244Z,13.00
2018-11-11T22:10:14.936Z,13.00
2018-11-11T22:12:44.556Z,13.00
2018-11-11T22:15:13.630Z,13.00
2018-11-11T22:17:43.061Z,13.00
2018-11-11T22:20:12.247Z,13.10
2018-11-11T22:22:41.552Z,13.10
2018-11-11T22:25:10.568Z,13.20
2018-11-11T22:27:39.373Z,13.20
2018-11-11T22:30:10.530Z,13.30
2018-11-11T22:32:39.829Z,13.40
2018-11-11T22:35:12.304Z,13.40
2018-11-11T22:37:41.046Z,13.50
2018-11-11T22:40:12.524Z,13.50
2018-11-11T22:42:41.387Z,13.60
2018-11-11T22:45:12.964Z,13.50
2018-11-11T22:47:41.701Z,13.50
2018-11-11T22:50:12.723Z,13.60
2018-11-11T22:52:41.547Z,13.60
2018-11-11T22:55:11.204Z,13.60
2018-11-11T22:57:40.302Z,13.60
2018-11-11T23:00:18.822Z,13.60
2018-11-11T23:02:47.517Z,13.60
2018-11-11T23:05:18.604Z,13.60
2018-11-11T23:07:49.078Z,13.60
2018-11-11T23:10:18.560Z,13.60
2018-11-11T23:12:49.729Z,13.60
2018-11-11T23:15:19.725Z,13.60
2018-11-11T23:17:48.458Z,13.70
2018-11-11T23:20:19.041Z,13.70
2018-11-11T23:22:47.740Z,13.70
2018-11-11T23:25:17.226Z,13.70
2018-11-11T23:27:45.928Z,13.70
2018-11-11T23:30:19.108Z,13.60
2018-11-11T23:32:48.453Z,13.60
2018-11-11T23:35:17.177Z,13.50
2018-11-11T23:37:46.067Z,13.50
2018-11-11T23:40:16.447Z,13.40
2018-11-11T23:42:46.203Z,13.40
2018-11-11T23:45:15.279Z,13.40
2018-11-11T23:47:43.914Z,13.40
2018-11-11T23:50:16.510Z,13.40
2018-11-11T23:52:45.974Z,13.40
2018-11-11T23:55:16.222Z,13.40
2018-11-11T23:57:44.892Z,13.50
